Time;durP1;ratioP1;P1;durP2;ratioP2;P2;SDS_P1;SDS_P2;PMS_P1;PMS_P2;Temp;Humidity;BMP_temperature;BMP_pressure;BME280_temperature;BME280_humidity;BME280_pressure;Samples;Min_cycle;Max_cycle;Signal;HPM_P1;HPM_P2
2023/04/30 00:00:14;;;;;;;12.07;6.00;;;11.90;86.30;;;;;;5113940;28;20020;-74
2023/04/30 00:02:40;;;;;;;10.93;5.95;;;11.90;86.40;;;;;;5096145;28;20020;-73
2023/04/30 00:05:05;;;;;;;10.13;5.47;;;11.90;86.50;;;;;;5113009;28;20434;-73
2023/04/30 00:07:31;;;;;;;12.32;5.93;;;11.90;86.90;;;;;;5113826;28;20031;-73
2023/04/30 00:09:57;;;;;;;10.80;5.78;;;11.90;85.90;;;;;;5113807;28;20039;-73
2023/04/30 00:12:22;;;;;;;10.15;5.55;;;11.90;86.00;;;;;;5113780;28;20028;-73
2023/04/30 00:14:48;;;;;;;10.82;5.68;;;11.90;85.90;;;;;;5113630;28;20073;-73
2023/04/30 00:17:14;;;;;;;13.48;6.38;;;11.90;85.60;;;;;;5112496;28;20099;-73
2023/04/30 00:19:40;;;;;;;11.50;6.30;;;11.80;85.60;;;;;;5112329;28;20032;-73
2023/04/30 00:22:06;;;;;;;11.95;6.35;;;11.70;86.00;;;;;;5113630;28;20110;-73
2023/04/30 00:24:31;;;;;;;11.93;6.22;;;11.70;86.30;;;;;;5113602;28;20028;-73
2023/04/30 00:26:57;;;;;;;10.70;6.25;;;11.70;86.50;;;;;;5113565;28;20088;-73
2023/04/30 00:29:22;;;;;;;11.52;6.32;;;11.70;86.70;;;;;;5113508;28;20047;-73
2023/04/30 00:31:48;;;;;;;10.90;5.85;;;11.70;86.80;;;;;;5113484;28;20157;-74
2023/04/30 00:34:14;;;;;;;10.02;5.97;;;11.70;86.80;;;;;;5112413;28;20070;-73
2023/04/30 00:36:40;;;;;;;10.70;6.00;;;11.70;86.80;;;;;;5112587;28;20107;-73
2023/04/30 00:39:05;;;;;;;12.40;5.80;;;11.60;86.60;;;;;;5113580;28;20017;-73
2023/04/30 00:41:33;;;;;;;11.55;5.97;;;11.60;86.70;;;;;;5113402;28;20454;-73
2023/04/30 00:44:01;;;;;;;11.50;6.00;;;11.60;86.60;;;;;;5113415;28;20028;-73
2023/04/30 00:46:26;;;;;;;10.93;5.68;;;11.60;86.60;;;;;;5112327;28;20028;-73
2023/04/30 00:48:52;;;;;;;10.27;5.78;;;11.60;86.80;;;;;;5112379;28;20052;-73
2023/04/30 00:51:18;;;;;;;12.13;6.30;;;11.60;86.70;;;;;;5113299;28;20036;-73
2023/04/30 00:53:43;;;;;;;11.73;5.95;;;11.50;86.70;;;;;;5113304;28;20043;-73
2023/04/30 00:56:09;;;;;;;10.60;6.05;;;11.40;86.90;;;;;;5113386;28;20031;-72
2023/04/30 00:58:35;;;;;;;9.15;5.30;;;11.40;87.00;;;;;;5112364;28;20079;-73
2023/04/30 01:01:02;;;;;;;9.27;5.20;;;11.40;87.10;;;;;;5112334;28;20035;-73
2023/04/30 01:03:28;;;;;;;11.38;5.65;;;11.30;86.90;;;;;;5112196;28;20032;-72
2023/04/30 01:05:54;;;;;;;10.35;5.65;;;11.30;86.60;;;;;;5113179;28;20082;-73
2023/04/30 01:08:20;;;;;;;11.80;5.60;;;11.30;86.70;;;;;;5113142;28;20036;-73
2023/04/30 01:10:55;;;;;;;10.55;5.72;;;11.20;86.90;;;;;;5112272;28;20088;-73
2023/04/30 01:13:29;;;;;;;11.88;6.10;;;11.20;87.20;;;;;;5113080;28;20017;-73
2023/04/30 01:16:18;;;;;;;10.70;6.10;;;11.20;87.10;;;;;;5111927;28;20090;-73
2023/04/30 01:18:51;;;;;;;9.60;5.75;;;11.20;86.90;;;;;;5112093;28;20020;-72
2023/04/30 01:21:19;;;;;;;9.98;5.50;;;11.20;87.00;;;;;;5113101;28;20028;-73
2023/04/30 01:24:22;;;;;;;10.15;5.32;;;11.20;86.80;;;;;;5111987;28;20087;-73
2023/04/30 01:26:55;;;;;;;;;;;11.20;86.70;;;;;;5113537;28;20067;-73
2023/04/30 01:29:23;;;;;;;11.20;5.60;;;11.10;86.60;;;;;;5113152;28;19904;-73
2023/04/30 01:31:49;;;;;;;10.20;5.35;;;11.00;86.70;;;;;;5114520;28;20055;-73
2023/04/30 01:34:15;;;;;;;11.20;6.00;;;10.90;87.00;;;;;;5115766;28;20093;-73
2023/04/30 01:36:49;;;;;;;8.82;5.03;;;10.90;87.40;;;;;;5116700;28;20024;-73
2023/04/30 01:39:29;;;;;;;11.32;5.75;;;10.90;87.60;;;;;;5116753;28;20024;-73
2023/04/30 01:42:12;;;;;;;8.80;4.93;;;10.80;87.90;;;;;;5115742;28;20093;-73
2023/04/30 01:44:41;;;;;;;;;;;10.80;87.60;;;;;;5117228;28;20087;-73
2023/04/30 01:47:32;;;;;;;9.65;5.25;;;10.70;87.40;;;;;;5116527;28;19908;-73
2023/04/30 01:50:00;;;;;;;9.98;5.22;;;10.50;87.50;;;;;;5116631;28;20048;-73
2023/04/30 01:52:45;;;;;;;10.95;5.63;;;10.50;87.90;;;;;;5116419;28;20024;-73
2023/04/30 01:55:19;;;;;;;10.70;5.57;;;10.40;88.00;;;;;;5116563;28;20020;-73
2023/04/30 01:57:59;;;;;;;12.73;5.50;;;10.50;87.90;;;;;;5116366;28;20031;-72
2023/04/30 02:00:31;;;;;;;10.80;5.53;;;10.40;87.90;;;;;;5116432;28;20023;-73
2023/04/30 02:02:57;;;;;;;;;;;10.40;87.90;;;;;;5099226;28;20040;-73
2023/04/30 02:05:23;;;;;;;8.95;4.97;;;10.40;87.90;;;;;;5116228;28;19904;-72
2023/04/30 02:07:51;;;;;;;8.38;4.80;;;10.40;87.90;;;;;;5116254;28;20109;-73
2023/04/30 02:10:19;;;;;;;8.50;5.13;;;10.30;87.80;;;;;;5116074;28;20035;-73
2023/04/30 02:12:45;;;;;;;11.77;5.53;;;10.30;88.90;;;;;;5115997;28;20083;-73
2023/04/30 02:15:11;;;;;;;10.38;5.75;;;10.30;88.20;;;;;;5115991;28;20023;-73
2023/04/30 02:17:36;;;;;;;10.82;6.22;;;10.30;88.30;;;;;;5115707;28;20059;-72
2023/04/30 02:20:03;;;;;;;9.30;5.03;;;10.30;88.10;;;;;;5115895;28;20080;-73
2023/04/30 02:22:29;;;;;;;7.55;4.65;;;10.30;87.60;;;;;;5114797;28;20050;-72
2023/04/30 02:24:56;;;;;;;10.18;5.13;;;10.30;87.40;;;;;;5115825;28;20024;-73
2023/04/30 02:27:23;;;;;;;10.02;5.18;;;10.20;87.40;;;;;;5115008;28;20024;-73
2023/04/30 02:29:49;;;;;;;9.98;5.05;;;10.10;87.60;;;;;;5115733;28;20028;-73
2023/04/30 02:32:15;;;;;;;8.75;5.00;;;10.10;87.80;;;;;;5114807;28;20032;-72
2023/04/30 02:34:41;;;;;;;10.93;5.35;;;10.10;88.10;;;;;;5115491;28;20058;-73
2023/04/30 02:37:07;;;;;;;9.90;5.60;;;10.10;88.20;;;;;;5114696;28;20036;-73
2023/04/30 02:39:34;;;;;;;9.25;5.65;;;10.10;88.10;;;;;;5115511;28;20032;-73
2023/04/30 02:41:59;;;;;;;10.80;5.93;;;10.20;88.00;;;;;;5114215;28;20036;-73
2023/04/30 02:44:25;;;;;;;10.65;5.55;;;10.20;88.10;;;;;;5114230;28;20054;-73
2023/04/30 02:46:51;;;;;;;11.88;6.05;;;10.20;88.10;;;;;;5115396;28;20025;-73
2023/04/30 02:49:16;;;;;;;9.65;5.53;;;10.10;88.20;;;;;;5115319;28;20115;-73
2023/04/30 02:51:42;;;;;;;8.73;4.75;;;10.10;88.30;;;;;;5114359;28;20020;-72
2023/04/30 02:54:08;;;;;;;10.57;5.43;;;10.00;87.50;;;;;;5115163;28;20362;-73
2023/04/30 02:56:34;;;;;;;10.38;5.32;;;9.90;87.70;;;;;;5114203;28;20045;-73
2023/04/30 02:58:59;;;;;;;9.48;5.22;;;9.90;88.40;;;;;;5114214;28;20501;-72
2023/04/30 03:01:25;;;;;;;10.35;5.20;;;9.90;88.60;;;;;;5115254;28;20032;-73
2023/04/30 03:03:51;;;;;;;10.27;5.53;;;9.90;88.70;;;;;;5115077;28;20084;-73
2023/04/30 03:06:17;;;;;;;11.00;5.95;;;9.90;88.70;;;;;;5115024;28;20102;-73
2023/04/30 03:08:43;;;;;;;8.70;5.50;;;9.90;88.60;;;;;;5097066;28;20028;-73
2023/04/30 03:11:08;;;;;;;10.13;5.47;;;9.80;88.60;;;;;;5113838;28;20042;-73
2023/04/30 03:13:34;;;;;;;12.13;6.00;;;9.90;88.60;;;;;;5113769;28;20020;-73
2023/04/30 03:16:00;;;;;;;12.23;6.10;;;9.80;88.70;;;;;;5113893;28;20458;-73
2023/04/30 03:18:27;;;;;;;14.25;6.30;;;9.80;88.70;;;;;;5097040;28;20020;-72
2023/04/30 03:20:53;;;;;;;11.25;6.28;;;9.80;88.60;;;;;;5114729;28;20081;-73
2023/04/30 03:23:18;;;;;;;10.15;5.35;;;9.80;88.80;;;;;;5114669;28;20028;-73
2023/04/30 03:25:44;;;;;;;10.60;6.00;;;9.80;88.80;;;;;;5114626;28;20039;-72
2023/04/30 03:28:10;;;;;;;10.75;5.85;;;9.70;88.80;;;;;;5114615;28;20059;-73
2023/04/30 03:30:35;;;;;;;8.75;5.38;;;9.70;89.00;;;;;;5114525;28;20028;-72
2023/04/30 03:33:01;;;;;;;12.27;5.60;;;9.70;89.10;;;;;;5113379;28;20052;-73
2023/04/30 03:35:27;;;;;;;10.15;5.88;;;9.70;89.20;;;;;;5113348;28;20054;-72
2023/04/30 03:37:52;;;;;;;8.73;5.78;;;9.70;89.50;;;;;;5114373;28;20035;-72
2023/04/30 03:40:18;;;;;;;10.35;6.05;;;9.70;89.60;;;;;;5114323;28;20024;-72
2023/04/30 03:42:44;;;;;;;11.35;6.18;;;9.70;89.60;;;;;;5114312;28;20099;-73
2023/04/30 03:45:10;;;;;;;11.73;5.53;;;9.70;89.60;;;;;;5114319;28;20381;-73
2023/04/30 03:47:36;;;;;;;10.65;5.93;;;9.70;89.60;;;;;;5114260;28;20033;-73
2023/04/30 03:50:03;;;;;;;10.30;6.05;;;9.70;89.70;;;;;;5114366;28;20044;-73
2023/04/30 03:52:30;;;;;;;11.45;5.63;;;9.70;89.60;;;;;;5114158;28;20547;-73
2023/04/30 03:54:55;;;;;;;8.82;5.30;;;9.70;89.40;;;;;;5113165;28;20020;-72
2023/04/30 03:57:21;;;;;;;8.70;5.28;;;9.70;89.40;;;;;;5096114;28;20028;-73
2023/04/30 03:59:47;;;;;;;11.10;5.95;;;9.60;89.40;;;;;;5114096;28;20024;-73
2023/04/30 04:02:13;;;;;;;11.07;6.25;;;9.60;89.50;;;;;;5112904;28;20020;-72
2023/04/30 04:04:38;;;;;;;9.63;5.60;;;9.60;89.60;;;;;;5113018;28;20028;-72
2023/04/30 04:07:06;;;;;;;7.65;4.75;;;9.60;89.70;;;;;;5095949;28;20028;-72
2023/04/30 04:09:32;;;;;;;9.70;5.72;;;9.60;89.40;;;;;;5096338;28;20024;-73
2023/04/30 04:11:57;;;;;;;8.75;5.15;;;9.60;89.40;;;;;;5112819;28;20035;-73
2023/04/30 04:14:23;;;;;;;10.00;5.68;;;9.50;89.50;;;;;;5112724;28;20056;-73
2023/04/30 04:16:49;;;;;;;9.75;5.40;;;9.50;89.50;;;;;;5112587;28;20055;-73
2023/04/30 04:19:14;;;;;;;11.27;5.93;;;9.50;89.50;;;;;;5113722;28;20024;-73
2023/04/30 04:21:40;;;;;;;10.93;6.03;;;9.50;89.70;;;;;;5113618;28;20020;-73
2023/04/30 04:24:07;;;;;;;11.00;6.00;;;9.40;89.90;;;;;;5113648;28;20511;-73
2023/04/30 04:26:36;;;;;;;9.63;5.45;;;9.40;90.00;;;;;;5095930;28;20504;-73
2023/04/30 04:29:07;;;;;;;10.75;6.32;;;9.40;90.10;;;;;;5113551;28;20083;-73
2023/04/30 04:31:33;;;;;;;12.48;5.95;;;9.40;90.20;;;;;;5113607;28;20028;-73
2023/04/30 04:34:00;;;;;;;11.50;5.63;;;9.40;90.20;;;;;;5113357;28;20039;-72
2023/04/30 04:36:27;;;;;;;10.55;6.10;;;9.40;90.30;;;;;;5113496;28;20024;-73
2023/04/30 04:38:53;;;;;;;10.50;5.97;;;9.40;90.30;;;;;;5113587;28;20031;-73
2023/04/30 04:41:19;;;;;;;10.70;5.57;;;9.40;90.40;;;;;;5113469;28;20024;-73
2023/04/30 04:43:45;;;;;;;10.43;6.25;;;9.40;90.30;;;;;;5113426;28;20016;-73
2023/04/30 04:46:11;;;;;;;10.02;5.78;;;9.40;90.30;;;;;;5113372;28;20027;-72
2023/04/30 04:48:36;;;;;;;10.10;6.25;;;9.40;90.40;;;;;;5112424;28;20058;-73
2023/04/30 04:51:02;;;;;;;11.15;6.28;;;9.40;90.40;;;;;;5113329;28;20039;-72
2023/04/30 04:53:28;;;;;;;10.93;6.38;;;9.40;90.50;;;;;;5113216;28;20052;-72
2023/04/30 04:55:53;;;;;;;7.75;4.72;;;9.40;90.50;;;;;;5112267;28;20074;-72
2023/04/30 04:58:19;;;;;;;8.10;4.95;;;9.40;90.50;;;;;;5113290;28;20025;-72
2023/04/30 05:00:45;;;;;;;9.82;6.00;;;9.40;90.40;;;;;;5112320;28;20043;-73
2023/04/30 05:03:11;;;;;;;11.15;5.90;;;9.40;90.40;;;;;;5113214;28;20020;-72
2023/04/30 05:05:36;;;;;;;10.80;5.55;;;9.40;90.50;;;;;;5113009;28;20596;-73
2023/04/30 05:08:02;;;;;;;11.88;6.35;;;9.40;90.50;;;;;;5117293;28;20111;-73
2023/04/30 05:10:27;;;;;;;11.68;6.90;;;9.40;90.60;;;;;;5116334;28;20028;-72
2023/04/30 05:12:53;;;;;;;11.02;6.95;;;9.40;90.60;;;;;;5116164;28;20053;-73
2023/04/30 05:15:19;;;;;;;13.07;6.78;;;9.50;90.80;;;;;;5117147;28;20028;-72
2023/04/30 05:17:44;;;;;;;12.73;6.63;;;9.40;90.90;;;;;;5116822;28;20047;-73
2023/04/30 05:20:11;;;;;;;15.70;7.65;;;9.40;91.10;;;;;;5117081;28;20030;-72
2023/04/30 05:22:37;;;;;;;20.85;6.78;;;9.50;91.20;;;;;;5116232;28;20035;-73
2023/04/30 05:25:03;;;;;;;12.60;7.10;;;9.50;91.30;;;;;;5117126;28;20024;-72
2023/04/30 05:27:28;;;;;;;15.43;7.55;;;9.50;91.50;;;;;;5116959;28;20081;-73
2023/04/30 05:29:54;;;;;;;13.00;6.90;;;9.50;91.70;;;;;;5115918;28;20028;-73
2023/04/30 05:32:21;;;;;;;14.60;6.50;;;9.60;91.80;;;;;;5115830;28;20039;-73
2023/04/30 05:34:47;;;;;;;12.82;7.13;;;9.60;92.00;;;;;;5115636;28;20028;-72
2023/04/30 05:37:13;;;;;;;15.35;8.00;;;9.60;92.30;;;;;;5098758;28;20032;-73
2023/04/30 05:39:39;;;;;;;12.73;7.45;;;9.60;92.50;;;;;;5116883;28;20038;-72
2023/04/30 05:42:05;;;;;;;15.40;8.18;;;9.60;92.50;;;;;;5116710;28;20046;-72
2023/04/30 05:44:30;;;;;;;16.00;7.88;;;9.70;92.60;;;;;;5115580;28;20507;-73
2023/04/30 05:46:56;;;;;;;12.32;7.47;;;9.70;92.70;;;;;;5115642;28;20024;-73
2023/04/30 05:49:22;;;;;;;15.43;7.95;;;9.70;92.70;;;;;;5116526;28;20032;-73
2023/04/30 05:51:47;;;;;;;14.93;8.30;;;9.70;93.00;;;;;;5116421;28;20036;-73
2023/04/30 05:54:13;;;;;;;15.85;8.77;;;9.70;93.00;;;;;;5116376;28;20089;-73
2023/04/30 05:56:38;;;;;;;15.90;7.93;;;9.80;93.30;;;;;;5116388;28;20043;-73
2023/04/30 05:59:04;;;;;;;16.58;8.05;;;9.80;93.30;;;;;;5116352;28;20063;-73
2023/04/30 06:01:30;;;;;;;17.05;7.70;;;9.80;93.40;;;;;;5115330;28;20032;-73
2023/04/30 06:03:55;;;;;;;17.05;8.70;;;9.80;93.70;;;;;;5115174;28;20456;-73
2023/04/30 06:06:21;;;;;;;16.80;7.32;;;9.80;93.70;;;;;;5115441;28;20054;-73
2023/04/30 06:08:46;;;;;;;16.05;8.35;;;9.90;93.60;;;;;;5115234;28;20058;-73
2023/04/30 06:11:12;;;;;;;13.40;7.40;;;9.90;94.10;;;;;;5116130;28;20032;-73
2023/04/30 06:13:39;;;;;;;13.10;7.78;;;9.90;93.80;;;;;;5115972;28;20036;-72
2023/04/30 06:16:05;;;;;;;12.90;7.78;;;9.90;93.90;;;;;;5115963;28;20027;-73
2023/04/30 06:18:31;;;;;;;10.90;6.47;;;10.00;93.90;;;;;;5113998;28;20024;-73
2023/04/30 06:20:57;;;;;;;10.80;6.72;;;10.10;93.90;;;;;;5115899;28;20114;-73
2023/04/30 06:23:22;;;;;;;15.85;8.07;;;10.10;93.80;;;;;;5114989;28;20038;-73
2023/04/30 06:25:48;;;;;;;11.57;6.88;;;10.20;93.90;;;;;;5115815;28;20024;-73
2023/04/30 06:28:13;;;;;;;14.73;7.97;;;10.20;93.70;;;;;;5114847;28;20036;-73
2023/04/30 06:30:40;;;;;;;13.10;7.65;;;10.30;93.80;;;;;;5115741;28;20036;-72
2023/04/30 06:33:05;;;;;;;10.93;6.63;;;10.40;93.80;;;;;;5115696;28;20028;-73
2023/04/30 06:35:31;;;;;;;14.45;6.30;;;10.40;94.00;;;;;;5114535;28;20101;-73
2023/04/30 06:37:57;;;;;;;13.88;6.80;;;10.40;93.70;;;;;;5114550;28;20047;-73
2023/04/30 06:40:23;;;;;;;12.77;6.38;;;10.40;93.30;;;;;;5097733;28;20096;-73
2023/04/30 06:42:48;;;;;;;12.93;6.90;;;10.50;93.30;;;;;;5114540;28;20050;-73
2023/04/30 06:45:14;;;;;;;11.27;6.07;;;10.60;93.50;;;;;;5114415;28;20093;-73
2023/04/30 06:47:41;;;;;;;12.23;7.32;;;10.60;93.50;;;;;;5114334;28;20039;-73
2023/04/30 06:50:08;;;;;;;12.73;6.80;;;10.70;93.40;;;;;;5115333;28;20023;-73
2023/04/30 06:52:34;;;;;;;15.65;7.60;;;10.70;93.40;;;;;;5114311;28;20489;-73
2023/04/30 06:54:59;;;;;;;13.18;7.45;;;10.80;93.20;;;;;;5115116;28;20084;-73
2023/04/30 06:57:26;;;;;;;11.95;7.53;;;10.80;93.30;;;;;;5115237;28;20036;-73
2023/04/30 06:59:52;;;;;;;15.93;7.82;;;10.90;93.20;;;;;;5115197;28;20020;-73
2023/04/30 07:02:18;;;;;;;13.70;7.28;;;11.00;93.30;;;;;;5115110;28;20084;-73
2023/04/30 07:04:43;;;;;;;13.52;7.25;;;11.10;93.50;;;;;;5115068;28;20035;-73
2023/04/30 07:07:09;;;;;;;14.40;7.32;;;11.20;93.10;;;;;;5115007;28;20028;-73
2023/04/30 07:09:35;;;;;;;13.70;7.25;;;11.20;93.10;;;;;;5114878;28;20024;-73
2023/04/30 07:12:01;;;;;;;11.40;6.68;;;11.30;93.00;;;;;;5114949;28;20079;-73
2023/04/30 07:14:27;;;;;;;13.43;6.55;;;11.40;92.40;;;;;;5114864;28;20027;-72
2023/04/30 07:16:52;;;;;;;13.68;7.05;;;11.40;92.30;;;;;;5113751;28;20044;-72
2023/04/30 07:19:18;;;;;;;14.00;7.55;;;11.50;92.30;;;;;;5114912;28;20028;-72
2023/04/30 07:21:44;;;;;;;11.25;6.70;;;11.50;92.50;;;;;;5114761;28;20024;-73
2023/04/30 07:24:10;;;;;;;13.00;7.47;;;11.40;92.10;;;;;;5114680;28;20024;-73
2023/04/30 07:26:36;;;;;;;13.60;6.53;;;11.60;92.60;;;;;;5114600;28;20035;-73
2023/04/30 07:29:03;;;;;;;12.30;7.25;;;11.70;92.60;;;;;;5114531;28;20062;-74
2023/04/30 07:31:29;;;;;;;12.10;7.00;;;11.80;92.50;;;;;;5114571;28;20024;-73
2023/04/30 07:33:54;;;;;;;11.27;6.75;;;11.90;92.00;;;;;;5114356;28;20031;-74
2023/04/30 07:36:21;;;;;;;12.00;7.97;;;11.90;92.00;;;;;;5114480;28;20025;-73
2023/04/30 07:38:46;;;;;;;13.43;7.05;;;12.00;91.70;;;;;;5096461;28;20020;-74
2023/04/30 07:41:12;;;;;;;11.10;6.85;;;12.00;91.90;;;;;;5114373;28;20024;-73
2023/04/30 07:43:38;;;;;;;11.52;6.78;;;12.10;91.60;;;;;;5114286;28;20038;-73
2023/04/30 07:46:03;;;;;;;11.43;6.22;;;12.10;91.40;;;;;;5113338;28;20032;-73
2023/04/30 07:48:29;;;;;;;11.68;7.05;;;12.10;91.10;;;;;;5114210;28;20035;-73
2023/04/30 07:50:55;;;;;;;11.95;6.88;;;12.10;91.40;;;;;;5113202;28;20036;-74
2023/04/30 07:53:22;;;;;;;11.90;6.95;;;12.20;91.40;;;;;;5096233;28;20024;-74
2023/04/30 07:55:47;;;;;;;11.65;7.47;;;12.30;91.70;;;;;;5114123;28;20034;-73
2023/04/30 07:58:13;;;;;;;11.02;6.32;;;12.40;91.50;;;;;;5113122;28;20047;-73
2023/04/30 08:00:39;;;;;;;10.75;5.90;;;12.50;91.40;;;;;;5113110;28;20068;-73
2023/04/30 08:03:05;;;;;;;10.43;6.55;;;12.50;91.00;;;;;;5096123;28;20047;-73
2023/04/30 08:05:30;;;;;;;11.57;7.80;;;12.60;91.10;;;;;;5113951;28;20020;-73
2023/04/30 08:07:56;;;;;;;12.57;6.82;;;12.70;90.90;;;;;;5096079;28;20024;-73
2023/04/30 08:10:22;;;;;;;10.80;6.47;;;12.90;91.20;;;;;;5113824;28;20020;-73
2023/04/30 08:12:48;;;;;;;12.80;7.50;;;13.00;91.00;;;;;;5112796;28;20031;-73
2023/04/30 08:15:13;;;;;;;11.15;7.05;;;13.10;90.60;;;;;;5113832;28;20032;-73
2023/04/30 08:17:39;;;;;;;12.57;6.82;;;13.20;90.40;;;;;;5113574;28;20058;-74
2023/04/30 08:20:05;;;;;;;12.57;7.00;;;13.30;90.40;;;;;;5112759;28;20032;-74
2023/04/30 08:22:31;;;;;;;11.23;7.03;;;13.40;90.50;;;;;;5112739;28;20031;-73
2023/04/30 08:24:57;;;;;;;14.27;7.38;;;13.40;90.00;;;;;;5112843;28;20115;-73
2023/04/30 08:27:23;;;;;;;13.55;7.60;;;13.50;90.40;;;;;;5113620;28;20043;-73
2023/04/30 08:29:48;;;;;;;13.35;6.82;;;13.60;89.50;;;;;;5112672;28;20020;-73
2023/04/30 08:32:14;;;;;;;13.18;7.82;;;13.70;88.70;;;;;;5113550;28;20070;-73
2023/04/30 08:34:40;;;;;;;13.68;7.05;;;13.70;88.70;;;;;;5113403;28;20036;-74
2023/04/30 08:37:06;;;;;;;12.75;7.03;;;13.70;89.30;;;;;;5113498;28;20045;-73
2023/04/30 08:39:32;;;;;;;11.82;8.00;;;13.80;90.00;;;;;;5112430;28;20031;-73
2023/04/30 08:42:03;;;;;;;10.50;7.05;;;14.00;90.30;;;;;;5112952;28;20020;-73
2023/04/30 08:44:29;;;;;;;13.10;6.95;;;14.10;89.60;;;;;;5113355;28;20024;-73
2023/04/30 08:46:57;;;;;;;12.35;6.93;;;14.20;87.80;;;;;;5113412;28;20086;-73
2023/04/30 08:49:24;;;;;;;11.93;6.82;;;14.20;88.00;;;;;;5113385;28;20020;-73
2023/04/30 08:51:50;;;;;;;13.63;7.22;;;14.00;86.30;;;;;;5113370;28;20034;-73
2023/04/30 08:54:17;;;;;;;10.98;6.88;;;14.00;87.80;;;;;;5113232;28;20027;-73
2023/04/30 08:56:44;;;;;;;12.90;6.75;;;14.20;88.70;;;;;;5113278;28;20099;-73
2023/04/30 08:59:11;;;;;;;12.50;7.70;;;14.30;88.60;;;;;;5113289;28;20036;-73
2023/04/30 09:01:37;;;;;;;12.63;6.20;;;14.40;87.50;;;;;;5113391;28;20012;-73
2023/04/30 09:04:03;;;;;;;11.45;6.47;;;14.50;87.50;;;;;;5113219;28;20020;-73
2023/04/30 09:06:30;;;;;;;10.73;5.93;;;14.60;87.40;;;;;;5113338;28;20028;-73
2023/04/30 09:09:06;;;;;;;11.95;7.20;;;14.70;86.00;;;;;;5112300;28;20095;-74
2023/04/30 09:11:32;;;;;;;11.13;7.35;;;14.80;85.50;;;;;;5113176;28;20024;-73
2023/04/30 09:13:59;;;;;;;11.15;6.75;;;14.90;86.50;;;;;;5095091;28;20096;-73
2023/04/30 09:16:29;;;;;;;11.30;6.93;;;15.00;87.10;;;;;;5111839;28;20043;-74
2023/04/30 09:18:55;;;;;;;9.52;5.30;;;15.10;87.00;;;;;;5113231;28;20023;-73
2023/04/30 09:21:36;;;;;;;9.43;5.00;;;15.20;86.10;;;;;;5113120;28;20068;-73
2023/04/30 09:24:04;;;;;;;9.00;5.63;;;15.30;84.10;;;;;;5113061;28;20029;-74
2023/04/30 09:26:33;;;;;;;7.88;5.15;;;15.40;83.30;;;;;;5113041;28;20083;-73
2023/04/30 09:29:00;;;;;;;9.20;4.80;;;15.40;81.50;;;;;;5111959;28;20032;-73
2023/04/30 09:31:27;;;;;;;8.50;5.15;;;15.40;82.10;;;;;;5095198;28;20519;-74
2023/04/30 09:33:53;;;;;;;8.88;4.97;;;15.50;83.20;;;;;;5112798;28;20024;-73
2023/04/30 09:36:22;;;;;;;7.25;5.07;;;15.50;83.30;;;;;;5112952;28;20027;-73
2023/04/30 09:38:48;;;;;;;6.22;4.57;;;15.60;81.40;;;;;;5111946;28;20612;-74
2023/04/30 09:41:22;;;;;;;8.80;5.15;;;15.70;81.80;;;;;;5095081;28;20021;-74
2023/04/30 09:43:48;;;;;;;9.50;4.50;;;15.80;82.10;;;;;;5113044;28;20027;-73
2023/04/30 09:46:14;;;;;;;8.10;5.28;;;15.90;81.70;;;;;;5095014;28;20032;-74
2023/04/30 09:48:43;;;;;;;6.00;3.58;;;16.00;81.50;;;;;;5112844;28;20103;-74
2023/04/30 09:51:09;;;;;;;7.03;4.43;;;16.10;80.70;;;;;;5111782;28;20095;-74
2023/04/30 09:53:41;;;;;;;7.30;4.68;;;16.20;79.70;;;;;;5113907;28;20024;-74
2023/04/30 09:56:08;;;;;;;8.55;4.90;;;16.10;78.20;;;;;;5115485;28;20016;-74
2023/04/30 09:58:39;;;;;;;6.93;4.28;;;15.90;79.50;;;;;;5116380;28;20092;-73
2023/04/30 10:01:10;;;;;;;6.70;4.55;;;16.10;80.40;;;;;;5116416;28;20092;-74
2023/04/30 10:03:41;;;;;;;8.05;5.25;;;16.20;80.10;;;;;;5115392;28;20024;-73
2023/04/30 10:06:07;;;;;;;7.95;5.30;;;16.30;80.90;;;;;;5116449;28;20436;-74
2023/04/30 10:08:39;;;;;;;5.35;4.05;;;16.40;80.80;;;;;;5116157;28;20016;-74
2023/04/30 10:11:07;;;;;;;6.50;4.35;;;16.30;77.20;;;;;;5116199;28;20377;-74
2023/04/30 10:14:00;;;;;;;5.85;3.83;;;16.40;79.50;;;;;;5115092;28;20024;-74
2023/04/30 10:16:42;;;;;;;6.15;3.67;;;16.50;79.90;;;;;;5116075;28;20040;-74
2023/04/30 10:19:19;;;;;;;5.80;3.60;;;16.60;79.50;;;;;;5115103;28;20400;-74
2023/04/30 10:21:46;;;;;;;8.10;4.97;;;16.80;77.70;;;;;;5115982;28;20020;-74
2023/04/30 10:24:13;;;;;;;6.18;3.40;;;16.80;77.30;;;;;;5098069;28;20031;-74
2023/04/30 10:26:41;;;;;;;5.53;3.65;;;16.90;74.90;;;;;;5115803;28;20024;-74
2023/04/30 10:29:08;;;;;;;5.07;3.42;;;16.70;73.50;;;;;;5115855;28;20028;-73
2023/04/30 10:31:35;;;;;;;5.40;3.78;;;16.60;76.40;;;;;;5115817;28;20024;-74
2023/04/30 10:34:38;;;;;;;6.70;3.67;;;16.70;76.60;;;;;;5115573;28;20028;-74
2023/04/30 10:37:10;;;;;;;5.57;3.85;;;16.90;76.10;;;;;;5115653;28;20446;-74
2023/04/30 10:39:37;;;;;;;7.30;4.15;;;17.10;77.00;;;;;;5115651;28;20016;-74
2023/04/30 10:42:05;;;;;;;5.28;3.60;;;17.20;75.80;;;;;;5114608;28;20029;-74
2023/04/30 10:44:36;;;;;;;5.90;3.33;;;17.30;75.30;;;;;;5115524;28;20054;-74
2023/04/30 10:47:03;;;;;;;5.93;3.72;;;17.30;75.20;;;;;;5115463;28;20034;-74
2023/04/30 10:49:30;;;;;;;6.00;3.80;;;17.40;75.40;;;;;;5115395;28;20361;-74
2023/04/30 10:51:59;;;;;;;6.32;4.22;;;17.50;75.40;;;;;;5114478;28;20054;-74
2023/04/30 10:54:33;;;;;;;5.25;3.65;;;17.60;75.40;;;;;;5115260;28;20515;-74
2023/04/30 10:57:13;;;;;;;5.40;3.97;;;17.70;75.40;;;;;;5114503;28;20020;-74
2023/04/30 10:59:52;;;;;;;5.55;3.78;;;17.80;75.40;;;;;;5115199;28;20023;-74
2023/04/30 11:02:18;;;;;;;6.95;4.10;;;17.90;75.60;;;;;;5114170;28;20035;-74
2023/04/30 11:05:10;;;;;;;6.50;4.60;;;17.90;73.00;;;;;;5114679;28;20027;-74
2023/04/30 11:07:36;;;;;;;6.13;4.13;;;18.00;74.60;;;;;;5115071;28;20061;-74
2023/04/30 11:10:02;;;;;;;5.78;3.80;;;18.10;74.80;;;;;;5115035;28;20080;-73
2023/04/30 11:12:28;;;;;;;7.90;3.90;;;18.20;75.50;;;;;;5114927;28;20032;-74
2023/04/30 11:15:13;;;;;;;7.22;4.53;;;18.30;74.40;;;;;;5114837;28;20024;-74
2023/04/30 11:17:39;;;;;;;7.18;4.18;;;18.40;74.50;;;;;;5113555;28;20054;-74
2023/04/30 11:20:05;;;;;;;6.90;3.83;;;18.40;73.60;;;;;;5114819;28;20468;-74
2023/04/30 11:22:37;;;;;;;6.03;3.72;;;18.50;73.10;;;;;;5114762;28;20027;-74
2023/04/30 11:25:08;;;;;;;8.77;4.55;;;18.50;74.10;;;;;;5114814;28;20028;-74
2023/04/30 11:27:41;;;;;;;7.20;4.45;;;18.50;72.70;;;;;;5114642;28;20044;-74
2023/04/30 11:30:15;;;;;;;6.47;4.28;;;18.50;73.50;;;;;;5114843;28;20024;-74
2023/04/30 11:32:45;;;;;;;6.47;4.32;;;18.50;72.70;;;;;;5113554;28;20054;-74
2023/04/30 11:35:10;;;;;;;6.80;4.30;;;18.50;73.10;;;;;;5114450;28;20087;-74
2023/04/30 11:37:39;;;;;;;6.40;4.28;;;18.50;72.00;;;;;;5114418;28;20050;-74
2023/04/30 11:40:06;;;;;;;6.30;4.00;;;18.60;72.30;;;;;;5114445;28;20016;-74
2023/04/30 11:42:33;;;;;;;6.68;4.35;;;18.60;72.20;;;;;;5114414;28;20025;-74
2023/04/30 11:45:19;;;;;;;7.40;4.03;;;18.70;70.80;;;;;;5113274;28;20388;-74
2023/04/30 11:47:53;;;;;;;6.93;4.30;;;18.60;70.70;;;;;;5113321;28;20098;-74
2023/04/30 11:50:27;;;;;;;5.28;4.15;;;18.70;71.90;;;;;;5114239;28;20028;-74
2023/04/30 11:52:55;;;;;;;6.38;3.90;;;18.70;70.30;;;;;;5114264;28;20071;-75
2023/04/30 11:55:23;;;;;;;6.05;4.20;;;18.60;71.00;;;;;;5114128;28;20039;-74
2023/04/30 11:57:54;;;;;;;5.15;3.50;;;18.70;70.60;;;;;;5114123;28;20020;-74
2023/04/30 12:00:30;;;;;;;3.75;3.03;;;18.80;71.00;;;;;;5114141;28;20039;-74
2023/04/30 12:02:58;;;;;;;4.47;3.28;;;18.90;70.10;;;;;;5114077;28;20046;-74
2023/04/30 12:05:25;;;;;;;3.97;2.70;;;19.00;69.90;;;;;;5113940;28;20025;-74
2023/04/30 12:07:56;;;;;;;6.18;3.35;;;19.00;65.00;;;;;;5113996;28;20024;-75
2023/04/30 12:10:22;;;;;;;4.97;3.47;;;19.00;65.20;;;;;;5113140;28;20029;-75
2023/04/30 12:12:50;;;;;;;6.85;3.55;;;18.90;66.30;;;;;;5113826;28;20020;-74
2023/04/30 12:15:17;;;;;;;5.78;3.60;;;19.00;69.10;;;;;;5113006;28;20465;-73
2023/04/30 12:17:44;;;;;;;4.90;3.60;;;19.10;69.80;;;;;;5112572;28;20051;-74
2023/04/30 12:20:12;;;;;;;4.32;2.97;;;19.30;67.60;;;;;;5113745;28;20092;-74
2023/04/30 12:22:38;;;;;;;5.22;3.70;;;19.30;66.60;;;;;;5113741;28;20415;-74
2023/04/30 12:25:10;;;;;;;4.55;3.28;;;19.20;63.70;;;;;;5113767;28;20020;-74
2023/04/30 12:27:36;;;;;;;;;;;18.90;64.90;;;;;;5113107;28;20028;-74
2023/04/30 12:30:09;;;;;;;6.05;3.40;;;18.90;65.90;;;;;;5112674;28;19908;-74
2023/04/30 12:32:44;;;;;;;4.50;2.92;;;19.10;67.60;;;;;;5113683;28;20024;-74
2023/04/30 12:35:19;;;;;;;6.57;3.33;;;19.20;67.20;;;;;;5113437;28;20035;-75
2023/04/30 12:38:00;;;;;;;5.15;3.08;;;19.20;67.40;;;;;;5113762;28;20024;-74
2023/04/30 12:40:26;;;;;;;5.05;3.55;;;19.30;67.20;;;;;;5113574;28;20072;-74
2023/04/30 12:43:03;;;;;;;5.63;3.17;;;19.50;67.70;;;;;;5113459;28;20028;-75
2023/04/30 12:45:50;;;;;;;5.45;2.95;;;19.70;65.70;;;;;;5113478;28;20024;-74
2023/04/30 12:48:17;;;;;;;4.88;2.55;;;19.80;67.10;;;;;;5113426;28;20028;-74